Time;durP1;ratioP1;P1;durP2;ratioP2;P2;SDS_P1;SDS_P2;PMS_P1;PMS_P2;Temp;Humidity;BMP_temperature;BMP_pressure;BME280_temperature;BME280_humidity;BME280_pressure;Samples;Min_cycle;Max_cycle;Signal;HPM_P1;HPM_P2
2021/12/19 00:01:05;;;;;;;24.10;14.07;;;7.30;99.90;;;;;;4958089;28;20942;-57
2021/12/19 00:09:00;;;;;;;24.43;12.97;;;7.20;99.90;;;;;;4955890;28;20446;-57
2021/12/19 00:11:26;;;;;;;23.00;12.40;;;7.20;99.90;;;;;;4959446;28;20442;-54
2021/12/19 00:13:53;;;;;;;24.10;13.00;;;7.20;99.90;;;;;;4958516;28;20449;-57
2021/12/19 00:16:19;;;;;;;20.17;11.17;;;7.20;99.90;;;;;;4960824;28;20602;-53
2021/12/19 00:18:47;;;;;;;18.73;13.10;;;7.10;99.90;;;;;;4958828;28;20539;-53
2021/12/19 00:21:15;;;;;;;20.90;12.33;;;7.10;99.90;;;;;;4956621;28;20503;-55
2021/12/19 00:23:42;;;;;;;20.83;11.87;;;7.10;99.90;;;;;;4961460;28;20441;-55
2021/12/19 00:26:08;;;;;;;20.13;11.27;;;7.00;99.90;;;;;;4957368;28;20454;-56
2021/12/19 00:28:34;;;;;;;19.47;11.30;;;7.00;99.90;;;;;;4958951;28;20932;-56
2021/12/19 00:31:00;;;;;;;23.30;12.40;;;7.00;99.90;;;;;;4957511;28;20441;-55
2021/12/19 00:33:26;;;;;;;24.43;12.53;;;7.20;99.90;;;;;;4958783;28;20815;-57
2021/12/19 00:35:52;;;;;;;18.67;10.23;;;7.20;99.90;;;;;;4958636;28;20210;-53
2021/12/19 00:38:17;;;;;;;19.30;11.10;;;7.00;99.90;;;;;;4959449;28;20469;-56
2021/12/19 00:40:43;;;;;;;22.70;13.70;;;7.00;99.90;;;;;;4960056;28;20433;-53
2021/12/19 00:43:23;;;;;;;22.27;12.60;;;7.10;99.90;;;;;;4959843;28;20195;-52
2021/12/19 00:45:50;;;;;;;23.17;11.10;;;7.00;99.90;;;;;;4959479;28;20698;-53
2021/12/19 00:48:16;;;;;;;23.20;11.70;;;7.00;99.90;;;;;;4958161;28;20452;-56
2021/12/19 00:50:42;;;;;;;21.57;11.30;;;6.90;99.90;;;;;;4961409;28;20573;-55
2021/12/19 00:53:08;;;;;;;24.00;13.37;;;6.90;99.90;;;;;;4960128;28;20225;-57
2021/12/19 00:55:34;;;;;;;23.90;12.57;;;6.80;99.90;;;;;;4960195;28;20633;-54
2021/12/19 00:58:00;;;;;;;19.00;10.57;;;6.70;99.90;;;;;;4956831;28;20481;-55
2021/12/19 01:00:29;;;;;;;29.17;11.67;;;6.80;99.90;;;;;;4960294;28;20528;-57
2021/12/19 01:02:58;;;;;;;24.47;11.30;;;6.80;99.90;;;;;;4956574;28;20183;-55
2021/12/19 01:05:29;;;;;;;17.80;9.67;;;6.80;99.90;;;;;;4956830;28;20479;-56
2021/12/19 01:07:55;;;;;;;15.63;9.70;;;6.90;99.90;;;;;;4958939;28;20452;-57
2021/12/19 01:10:21;;;;;;;17.20;9.80;;;7.00;99.90;;;;;;4960140;28;20442;-55
2021/12/19 01:12:47;;;;;;;15.43;10.10;;;6.90;99.90;;;;;;4956917;28;20438;-58
2021/12/19 01:15:16;;;;;;;16.93;9.77;;;7.00;99.90;;;;;;4957413;28;20474;-56
2021/12/19 01:17:43;;;;;;;17.67;10.57;;;7.00;99.90;;;;;;4958840;28;20509;-57
2021/12/19 01:20:17;;;;;;;18.03;10.20;;;6.90;99.90;;;;;;4958842;28;20438;-56
2021/12/19 01:22:43;;;;;;;21.10;10.10;;;6.80;99.90;;;;;;4956720;28;20460;-54
2021/12/19 01:25:09;;;;;;;17.67;9.43;;;6.60;99.90;;;;;;4957411;28;20621;-55
2021/12/19 01:27:35;;;;;;;19.43;10.10;;;6.60;99.90;;;;;;4962656;28;20451;-57
2021/12/19 01:30:01;;;;;;;17.90;11.50;;;6.50;99.90;;;;;;4958935;28;20449;-55
2021/12/19 01:32:27;;;;;;;19.37;10.73;;;6.50;99.90;;;;;;4956998;28;20610;-56
2021/12/19 01:34:52;;;;;;;17.83;10.40;;;6.60;99.90;;;;;;4954258;28;20474;-54
2021/12/19 01:37:18;;;;;;;17.50;10.40;;;6.70;99.90;;;;;;4957094;28;20202;-54
2021/12/19 01:39:44;;;;;;;21.40;10.10;;;6.60;99.90;;;;;;4959232;28;20194;-56
2021/12/19 01:42:11;;;;;;;17.00;9.80;;;6.70;99.90;;;;;;4959417;28;20206;-57
2021/12/19 01:44:37;;;;;;;18.33;10.37;;;6.70;99.90;;;;;;4958028;28;20210;-53
2021/12/19 01:47:04;;;;;;;17.83;11.10;;;6.70;99.90;;;;;;4957054;28;20464;-55
2021/12/19 01:49:30;;;;;;;19.97;10.90;;;6.70;99.90;;;;;;4958859;28;20562;-54
2021/12/19 01:51:56;;;;;;;18.93;10.30;;;6.70;99.90;;;;;;4957969;28;20458;-55
2021/12/19 01:54:21;;;;;;;17.67;10.50;;;6.70;99.90;;;;;;4959669;28;20881;-56
2021/12/19 01:56:47;;;;;;;20.23;10.67;;;6.80;99.90;;;;;;4954514;28;20225;-55
2021/12/19 01:59:13;;;;;;;16.73;10.23;;;6.80;99.90;;;;;;4955020;28;20191;-57
2021/12/19 02:01:48;;;;;;;20.57;10.83;;;6.70;99.90;;;;;;4957352;28;20282;-56
2021/12/19 02:04:16;;;;;;;17.87;11.03;;;6.70;99.90;;;;;;4954662;28;20202;-57
2021/12/19 02:06:42;;;;;;;20.70;11.10;;;6.70;99.90;;;;;;4956313;28;20438;-57
2021/12/19 02:09:09;;;;;;;19.47;11.17;;;6.80;99.90;;;;;;4959337;28;20430;-57
2021/12/19 02:11:36;;;;;;;17.70;10.30;;;6.80;99.90;;;;;;4957153;28;21077;-57
2021/12/19 02:14:04;;;;;;;21.77;10.90;;;6.80;99.90;;;;;;4957219;28;20439;-57
2021/12/19 02:16:31;;;;;;;20.77;11.20;;;6.90;99.90;;;;;;4955722;28;20520;-57
2021/12/19 02:18:58;;;;;;;18.53;11.40;;;6.70;99.90;;;;;;4958807;28;20472;-57
2021/12/19 02:21:24;;;;;;;22.93;11.30;;;6.70;99.90;;;;;;4955720;28;20840;-56
2021/12/19 02:23:50;;;;;;;19.83;10.43;;;6.50;99.90;;;;;;4956351;28;20430;-56
2021/12/19 02:26:16;;;;;;;17.63;11.00;;;6.70;99.90;;;;;;4958037;28;20641;-58
2021/12/19 02:28:42;;;;;;;19.40;10.23;;;6.70;99.90;;;;;;4955648;28;20438;-54
2021/12/19 02:31:07;;;;;;;21.60;10.70;;;6.60;99.90;;;;;;4954964;28;20436;-57
2021/12/19 02:33:38;;;;;;;16.53;10.50;;;6.70;99.90;;;;;;4956768;28;20190;-56
2021/12/19 02:36:40;;;;;;;15.53;9.77;;;6.70;99.90;;;;;;4955774;28;20477;-58
2021/12/19 02:49:47;;;;;;;13.87;8.40;;;6.90;99.90;;;;;;4954674;28;20498;-54
2021/12/19 02:52:15;;;;;;;14.60;8.40;;;6.90;99.90;;;;;;4952911;28;20443;-55
2021/12/19 02:54:41;;;;;;;11.13;7.33;;;7.00;99.90;;;;;;4954465;28;20289;-57
2021/12/19 02:57:07;;;;;;;11.73;7.43;;;7.00;99.90;;;;;;4955699;28;21016;-58
2021/12/19 02:59:33;;;;;;;14.47;8.77;;;6.90;99.90;;;;;;4956329;28;20446;-55
2021/12/19 03:01:59;;;;;;;13.87;8.17;;;6.70;99.90;;;;;;4956712;28;20187;-54
2021/12/19 03:04:25;;;;;;;12.90;8.17;;;6.80;99.90;;;;;;4958341;28;21057;-54
2021/12/19 03:06:51;;;;;;;15.00;7.10;;;6.90;99.90;;;;;;4957064;28;20267;-57
2021/12/19 03:09:35;;;;;;;14.03;7.70;;;6.90;99.90;;;;;;4958268;28;20187;-54
2021/12/19 03:12:28;;;;;;;13.37;6.87;;;6.90;99.90;;;;;;4956239;28;21755;-54
2021/12/19 03:17:59;;;;;;;7.93;6.00;;;7.00;99.90;;;;;;4956164;28;20532;-56
2021/12/19 03:20:30;;;;;;;8.90;5.77;;;6.90;99.90;;;;;;4958194;28;20466;-56
2021/12/19 03:22:58;;;;;;;12.63;7.13;;;6.90;99.90;;;;;;4955326;28;20448;-57
2021/12/19 03:25:24;;;;;;;12.07;7.10;;;7.00;99.90;;;;;;4956881;28;20477;-56
2021/12/19 03:27:50;;;;;;;17.00;7.43;;;6.80;99.90;;;;;;4955462;28;20788;-59
2021/12/19 03:30:16;;;;;;;11.63;6.50;;;6.20;99.90;;;;;;4954890;28;20436;-56
2021/12/19 03:32:42;;;;;;;13.90;7.07;;;6.30;99.90;;;;;;4952796;28;20672;-54
2021/12/19 03:35:08;;;;;;;10.90;6.57;;;6.40;99.90;;;;;;4956989;28;20453;-56
2021/12/19 03:37:34;;;;;;;10.63;6.47;;;6.40;99.90;;;;;;4954248;28;20217;-54
2021/12/19 03:40:10;;;;;;;12.40;6.70;;;6.60;99.90;;;;;;4956909;28;20445;-55
2021/12/19 03:42:46;;;;;;;12.00;7.47;;;6.50;99.90;;;;;;4952521;28;20183;-56
2021/12/19 03:45:15;;;;;;;12.77;7.13;;;6.40;99.90;;;;;;4958205;28;20815;-56
2021/12/19 03:47:43;;;;;;;14.63;6.37;;;6.40;99.90;;;;;;4957376;28;20441;-55
2021/12/19 03:50:11;;;;;;;8.30;6.03;;;6.40;99.90;;;;;;4957914;28;20451;-57
2021/12/19 03:52:38;;;;;;;9.50;5.70;;;6.80;99.90;;;;;;4959911;28;20439;-52
2021/12/19 03:55:05;;;;;;;13.00;6.87;;;6.60;99.90;;;;;;4960828;28;20994;-55
2021/12/19 03:57:30;;;;;;;10.43;7.07;;;6.70;99.90;;;;;;4959613;28;20477;-51
2021/12/19 03:59:56;;;;;;;11.20;6.00;;;6.80;99.90;;;;;;4959941;28;20460;-54
2021/12/19 04:02:26;;;;;;;11.13;6.47;;;6.80;99.90;;;;;;4959724;28;20213;-56
2021/12/19 04:04:54;;;;;;;9.13;6.07;;;6.70;99.90;;;;;;4958797;28;20607;-56
2021/12/19 04:07:21;;;;;;;9.97;6.50;;;6.70;99.90;;;;;;4958272;28;20600;-52
2021/12/19 04:09:47;;;;;;;8.23;4.93;;;6.40;99.90;;;;;;4958906;28;20441;-55
2021/12/19 04:12:13;;;;;;;9.17;5.50;;;6.20;99.90;;;;;;4958281;28;20457;-54
2021/12/19 04:14:39;;;;;;;7.83;4.53;;;6.20;99.90;;;;;;4958934;28;20561;-52
2021/12/19 04:17:05;;;;;;;12.53;5.20;;;5.80;99.90;;;;;;4959507;28;20469;-57
2021/12/19 04:19:32;;;;;;;13.90;5.80;;;5.70;99.90;;;;;;4959888;28;20940;-51
2021/12/19 04:21:59;;;;;;;7.03;4.80;;;5.90;99.90;;;;;;4961007;28;20434;-53
2021/12/19 04:24:25;;;;;;;8.43;5.30;;;6.20;99.90;;;;;;4962157;28;20461;-52
2021/12/19 04:26:51;;;;;;;7.03;4.73;;;6.40;99.90;;;;;;4959751;28;20487;-54
2021/12/19 04:29:16;;;;;;;9.13;5.23;;;6.50;99.90;;;;;;4959320;28;20469;-55
2021/12/19 04:31:42;;;;;;;7.03;5.63;;;6.50;99.90;;;;;;4959020;28;20193;-53
2021/12/19 04:34:08;;;;;;;7.10;4.60;;;6.70;99.90;;;;;;4957937;28;20214;-56
2021/12/19 04:36:39;;;;;;;6.90;3.80;;;6.80;99.90;;;;;;4962805;28;20219;-56
2021/12/19 04:39:35;;;;;;;5.97;3.47;;;6.80;99.90;;;;;;4960434;28;20519;-53
2021/12/19 04:57:59;;;;;;;6.97;3.97;;;6.20;99.90;;;;;;4958468;28;20281;-57
2021/12/19 05:00:41;;;;;;;7.17;4.73;;;6.40;99.90;;;;;;4961383;28;20687;-55
2021/12/19 05:03:45;;;;;;;5.57;4.03;;;6.30;99.90;;;;;;4958380;28;20529;-55
2021/12/19 05:14:07;;;;;;;6.90;4.20;;;6.30;99.90;;;;;;4958957;28;20581;-52
2021/12/19 05:16:34;;;;;;;7.37;4.97;;;6.10;99.90;;;;;;4958940;28;20474;-56
2021/12/19 05:19:06;;;;;;;9.00;5.27;;;5.80;99.90;;;;;;4958312;28;20439;-56
2021/12/19 05:21:35;;;;;;;6.90;5.13;;;5.80;99.90;;;;;;4957977;28;20430;-54
2021/12/19 05:26:26;;;;;;;8.33;5.20;;;5.60;99.90;;;;;;4958918;28;20436;-52
2021/12/19 05:28:52;;;;;;;7.27;5.00;;;5.70;99.90;;;;;;4958056;28;20182;-54
2021/12/19 05:31:21;;;;;;;7.53;5.17;;;5.60;99.90;;;;;;4961387;28;20194;-54
2021/12/19 05:33:48;;;;;;;6.47;4.57;;;5.70;99.90;;;;;;4959363;28;20969;-58
2021/12/19 05:46:47;;;;;;;6.40;4.50;;;5.90;99.90;;;;;;4958291;28;20444;-55
2021/12/19 05:49:12;;;;;;;8.10;5.60;;;5.80;99.90;;;;;;4959264;28;20441;-52
2021/12/19 05:51:38;;;;;;;9.33;6.30;;;5.70;99.90;;;;;;4960930;28;20190;-56
2021/12/19 05:54:06;;;;;;;9.87;7.00;;;5.60;99.90;;;;;;4957762;28;20197;-55
2021/12/19 05:56:32;;;;;;;11.37;6.67;;;5.60;99.90;;;;;;4953505;28;20470;-55
2021/12/19 05:58:58;;;;;;;14.77;8.87;;;5.80;99.90;;;;;;4954915;28;20434;-54
2021/12/19 06:01:24;;;;;;;17.07;9.60;;;5.60;99.90;;;;;;4956163;28;20445;-56
2021/12/19 06:03:50;;;;;;;17.13;10.13;;;5.70;99.90;;;;;;4958672;28;20223;-55
2021/12/19 06:06:15;;;;;;;24.10;11.57;;;5.60;99.90;;;;;;4956888;28;20186;-55
2021/12/19 06:08:41;;;;;;;16.50;10.70;;;5.50;99.90;;;;;;4946201;28;21013;-55
2021/12/19 06:11:07;;;;;;;20.57;13.00;;;5.40;99.90;;;;;;4956307;28;20215;-55
2021/12/19 06:13:33;;;;;;;18.60;11.20;;;5.30;99.90;;;;;;4955283;28;20288;-56
2021/12/19 06:15:59;;;;;;;19.90;12.27;;;5.30;99.90;;;;;;4955573;28;20572;-54
2021/12/19 06:18:24;;;;;;;21.20;11.60;;;5.30;99.90;;;;;;4956379;28;20221;-55
2021/12/19 06:20:50;;;;;;;18.77;12.33;;;5.30;99.90;;;;;;4956274;28;20797;-55
2021/12/19 06:23:16;;;;;;;24.77;12.43;;;5.50;99.90;;;;;;4956338;28;20299;-54
2021/12/19 06:25:45;;;;;;;25.37;12.27;;;5.50;99.90;;;;;;4954241;28;20711;-55
2021/12/19 06:28:15;;;;;;;24.70;11.43;;;5.20;99.90;;;;;;4959590;28;20273;-57
2021/12/19 06:30:41;;;;;;;20.00;11.90;;;5.10;99.90;;;;;;4957098;28;20438;-54
2021/12/19 06:33:07;;;;;;;23.83;11.83;;;5.10;99.90;;;;;;4956916;28;21107;-55
2021/12/19 06:35:33;;;;;;;27.70;12.33;;;5.00;99.90;;;;;;4958797;28;21032;-55
2021/12/19 06:37:59;;;;;;;20.50;11.93;;;5.10;99.90;;;;;;4958240;28;20214;-55
2021/12/19 06:40:24;;;;;;;27.63;12.27;;;5.10;99.90;;;;;;4959602;28;20453;-56
2021/12/19 06:42:51;;;;;;;23.00;10.80;;;5.20;99.90;;;;;;4956055;28;20571;-55
2021/12/19 06:45:18;;;;;;;17.10;9.50;;;5.00;99.90;;;;;;4955445;28;20215;-57
2021/12/19 06:47:44;;;;;;;15.77;10.90;;;5.10;99.90;;;;;;4954191;28;20800;-55
2021/12/19 06:50:12;;;;;;;25.77;10.93;;;5.10;99.90;;;;;;4958006;28;20433;-57
2021/12/19 06:52:39;;;;;;;17.57;10.07;;;5.00;99.90;;;;;;4959367;28;20472;-53
2021/12/19 06:55:06;;;;;;;17.63;10.40;;;5.00;99.90;;;;;;4956926;28;20494;-54
2021/12/19 06:57:32;;;;;;;16.40;10.97;;;4.80;99.90;;;;;;4959732;28;20470;-55
2021/12/19 06:59:58;;;;;;;18.07;11.20;;;4.90;99.90;;;;;;4957043;28;20683;-54
2021/12/19 07:02:24;;;;;;;20.60;12.17;;;5.00;99.90;;;;;;4958556;28;20251;-56
2021/12/19 07:04:49;;;;;;;18.67;11.07;;;4.90;99.90;;;;;;4956180;28;20683;-53
2021/12/19 07:07:15;;;;;;;18.83;9.83;;;5.10;99.90;;;;;;4956851;28;20438;-56
2021/12/19 07:09:41;;;;;;;17.57;9.37;;;5.10;99.90;;;;;;4957124;28;20183;-56
2021/12/19 07:12:07;;;;;;;18.53;9.57;;;5.10;99.90;;;;;;4955193;28;20190;-55
2021/12/19 07:14:34;;;;;;;15.87;9.83;;;5.00;99.90;;;;;;4955531;28;20218;-54
2021/12/19 07:16:59;;;;;;;16.20;9.73;;;5.00;99.90;;;;;;4953090;28;20524;-53
2021/12/19 07:19:25;;;;;;;16.23;9.90;;;5.00;99.90;;;;;;4960977;28;20434;-57
2021/12/19 07:21:51;;;;;;;18.80;9.33;;;4.90;99.90;;;;;;4963536;28;20182;-55
2021/12/19 07:24:17;;;;;;;20.30;10.10;;;5.00;99.90;;;;;;4957896;28;20277;-56
2021/12/19 07:26:42;;;;;;;15.23;9.57;;;4.80;99.90;;;;;;4960088;28;20441;-55
2021/12/19 07:29:08;;;;;;;17.00;9.17;;;4.80;99.90;;;;;;4959681;28;20191;-55
2021/12/19 07:31:37;;;;;;;16.80;9.93;;;4.80;99.90;;;;;;4960753;28;20605;-54
2021/12/19 07:34:04;;;;;;;13.73;8.60;;;4.80;99.90;;;;;;4961674;28;20540;-53
2021/12/19 07:36:37;;;;;;;15.17;9.73;;;4.80;99.90;;;;;;4959824;28;20476;-53
2021/12/19 07:39:20;;;;;;;14.00;9.87;;;4.90;99.90;;;;;;4961423;28;20434;-54
2021/12/19 07:41:46;;;;;;;18.27;9.80;;;4.90;99.90;;;;;;4959487;28;20445;-56
2021/12/19 07:44:12;;;;;;;15.00;10.00;;;4.90;99.90;;;;;;4958711;28;21346;-57
2021/12/19 07:46:37;;;;;;;17.50;9.60;;;4.90;99.90;;;;;;4947778;28;20209;-57
2021/12/19 07:49:03;;;;;;;17.03;9.70;;;5.10;99.90;;;;;;4961116;28;20669;-54
2021/12/19 07:51:29;;;;;;;22.87;10.07;;;4.90;99.90;;;;;;4958789;28;20230;-55
2021/12/19 07:53:54;;;;;;;15.60;9.60;;;5.00;99.90;;;;;;4959438;28;20197;-57
2021/12/19 07:56:20;;;;;;;18.23;10.30;;;4.90;99.90;;;;;;4960587;28;20202;-54
2021/12/19 07:58:46;;;;;;;13.83;8.20;;;4.80;99.90;;;;;;4958316;28;20195;-57
2021/12/19 08:01:11;;;;;;;12.90;8.40;;;4.90;99.90;;;;;;4961426;28;20274;-56
2021/12/19 08:03:37;;;;;;;14.03;8.03;;;4.90;99.90;;;;;;4959673;28;20281;-54
2021/12/19 08:06:03;;;;;;;13.13;8.87;;;4.90;99.90;;;;;;4959409;28;20248;-57
2021/12/19 08:08:32;;;;;;;18.93;9.57;;;4.90;99.90;;;;;;4955190;28;20293;-56
2021/12/19 08:13:43;;;;;;;15.60;8.50;;;4.90;99.90;;;;;;4959712;28;20465;-55
2021/12/19 08:16:08;;;;;;;17.17;9.40;;;4.70;99.90;;;;;;4962276;28;21301;-54
2021/12/19 08:18:34;;;;;;;17.30;8.30;;;4.80;99.90;;;;;;4956779;28;22278;-56
2021/12/19 08:21:00;;;;;;;14.60;8.70;;;4.90;99.90;;;;;;4961271;28;20191;-55
2021/12/19 08:23:26;;;;;;;14.13;8.40;;;4.80;99.90;;;;;;4956492;28;20450;-54
2021/12/19 08:25:51;;;;;;;12.50;7.77;;;4.80;99.90;;;;;;4957795;28;20206;-55
2021/12/19 08:28:17;;;;;;;16.70;9.17;;;4.70;99.90;;;;;;4959794;28;20704;-53
2021/12/19 08:30:43;;;;;;;16.90;8.70;;;4.70;99.90;;;;;;4956914;28;20580;-54
2021/12/19 08:33:08;;;;;;;14.40;8.30;;;4.80;99.90;;;;;;4960975;28;20194;-55
2021/12/19 08:35:34;;;;;;;12.97;7.43;;;4.70;99.90;;;;;;4957903;28;20863;-56
2021/12/19 08:37:59;;;;;;;17.17;9.73;;;4.70;99.90;;;;;;4957107;28;20619;-57
2021/12/19 08:40:27;;;;;;;14.43;8.80;;;4.80;99.90;;;;;;4958366;28;20199;-56
2021/12/19 08:42:53;;;;;;;9.70;7.40;;;4.80;99.90;;;;;;4954982;28;20191;-57
2021/12/19 08:45:19;;;;;;;10.73;7.10;;;4.70;99.90;;;;;;4952761;28;20461;-56
2021/12/19 08:47:44;;;;;;;13.77;8.73;;;4.60;99.90;;;;;;4956691;28;20446;-56
2021/12/19 08:50:10;;;;;;;12.80;7.97;;;4.60;99.90;;;;;;4957167;28;20437;-56
2021/12/19 08:52:36;;;;;;;19.00;9.17;;;4.70;99.90;;;;;;4958453;28;20461;-58
2021/12/19 08:55:05;;;;;;;14.10;8.20;;;4.50;99.90;;;;;;4957155;28;20468;-54
2021/12/19 08:57:31;;;;;;;13.70;8.30;;;4.40;99.90;;;;;;4957411;28;20580;-52
2021/12/19 08:59:57;;;;;;;11.73;7.30;;;4.50;99.90;;;;;;4956989;28;20560;-56
2021/12/19 09:02:23;;;;;;;16.00;9.07;;;4.60;99.90;;;;;;4955885;28;20520;-53
2021/12/19 09:04:49;;;;;;;11.97;6.93;;;4.70;99.90;;;;;;4953378;28;20466;-55
2021/12/19 09:07:23;;;;;;;13.63;7.53;;;4.60;99.90;;;;;;4953769;28;20863;-59
2021/12/19 09:09:48;;;;;;;13.13;8.40;;;4.60;99.90;;;;;;4941042;28;20233;-55
2021/12/19 09:12:15;;;;;;;13.37;8.53;;;4.50;99.90;;;;;;4952368;28;21996;-53
2021/12/19 09:14:40;;;;;;;13.83;7.73;;;4.50;99.90;;;;;;4957526;28;20643;-52
2021/12/19 09:17:06;;;;;;;9.23;7.10;;;4.60;99.90;;;;;;4955598;28;20485;-55
2021/12/19 09:19:32;;;;;;;10.87;7.10;;;4.70;99.90;;;;;;4950798;28;20196;-52
2021/12/19 09:21:57;;;;;;;10.33;6.30;;;4.70;99.90;;;;;;4954393;28;20919;-52
2021/12/19 09:24:23;;;;;;;9.93;7.00;;;4.70;99.90;;;;;;4954642;28;20219;-56
2021/12/19 09:26:49;;;;;;;10.37;7.00;;;4.80;99.90;;;;;;4955219;28;20201;-55
2021/12/19 09:29:14;;;;;;;10.37;6.47;;;4.70;99.90;;;;;;4954651;28;20190;-57
2021/12/19 09:31:40;;;;;;;11.87;6.60;;;4.80;99.90;;;;;;4954536;28;20191;-55
2021/12/19 09:34:07;;;;;;;12.93;7.07;;;4.70;99.90;;;;;;4943942;28;20198;-57
2021/12/19 09:36:34;;;;;;;10.10;6.33;;;4.80;99.90;;;;;;4956149;28;20194;-54
2021/12/19 09:39:00;;;;;;;13.73;7.40;;;4.80;99.90;;;;;;4955667;28;20556;-56
2021/12/19 09:41:29;;;;;;;11.47;7.37;;;4.90;99.90;;;;;;4955377;28;20478;-57
2021/12/19 09:43:58;;;;;;;9.80;6.70;;;5.00;99.90;;;;;;4957075;28;20430;-56
2021/12/19 09:46:29;;;;;;;9.23;6.80;;;5.00;99.90;;;;;;4954449;28;20494;-56
2021/12/19 09:48:55;;;;;;;9.93;6.90;;;5.20;99.90;;;;;;4956195;28;20441;-55
2021/12/19 09:51:21;;;;;;;10.50;7.17;;;5.30;99.90;;;;;;4954358;28;20481;-53
2021/12/19 09:53:47;;;;;;;9.13;7.07;;;5.10;99.90;;;;;;4949357;28;20896;-55
2021/12/19 09:56:13;;;;;;;10.47;6.57;;;5.00;99.90;;;;;;4955173;28;20472;-54
2021/12/19 09:58:40;;;;;;;11.87;6.97;;;4.90;99.90;;;;;;4956507;28;20214;-54
2021/12/19 10:01:08;;;;;;;11.73;6.97;;;5.10;99.90;;;;;;4949993;28;20444;-53
2021/12/19 10:03:35;;;;;;;14.67;7.93;;;4.90;99.90;;;;;;4954370;28;21207;-55
2021/12/19 10:06:22;;;;;;;11.73;6.83;;;4.60;99.90;;;;;;4958838;28;21002;-57
2021/12/19 10:09:06;;;;;;;10.40;6.43;;;4.50;99.90;;;;;;4955555;28;20454;-55
2021/12/19 10:11:45;;;;;;;10.83;7.37;;;4.60;99.90;;;;;;4954970;28;20817;-54
2021/12/19 10:14:38;;;;;;;11.30;8.20;;;4.70;99.90;;;;;;4950586;28;20457;-55
2021/12/19 10:17:16;;;;;;;11.20;7.87;;;4.80;99.90;;;;;;4950732;28;20541;-53
2021/12/19 10:19:48;;;;;;;10.30;7.47;;;4.80;99.90;;;;;;4953098;28;20491;-55
2021/12/19 10:22:37;;;;;;;10.67;7.10;;;4.90;99.90;;;;;;4957661;28;20990;-55
2021/12/19 10:25:20;;;;;;;15.20;8.67;;;4.70;99.90;;;;;;4956609;28;20465;-52
2021/12/19 10:27:48;;;;;;;10.87;7.00;;;4.70;99.90;;;;;;4953552;28;20438;-55
2021/12/19 10:30:32;;;;;;;12.20;7.40;;;4.70;99.90;;;;;;4953018;28;20844;-54
2021/12/19 10:33:04;;;;;;;12.37;8.70;;;4.70;99.90;;;;;;4955337;28;20469;-55
2021/12/19 10:35:34;;;;;;;7.60;6.70;;;4.70;99.90;;;;;;4956029;28;20477;-56
2021/12/19 10:38:02;;;;;;;10.27;7.67;;;4.60;99.90;;;;;;4955600;28;20540;-51
2021/12/19 10:40:28;;;;;;;11.23;7.53;;;4.70;99.90;;;;;;4953300;28;20438;-54
2021/12/19 10:43:00;;;;;;;17.33;9.60;;;4.70;99.90;;;;;;4952358;28;20506;-54
2021/12/19 10:45:34;;;;;;;11.30;7.70;;;4.80;99.90;;;;;;4955024;28;20484;-54
2021/12/19 10:48:18;;;;;;;14.10;8.67;;;4.70;99.90;;;;;;4954050;28;20450;-55
2021/12/19 10:51:22;;;;;;;16.60;8.30;;;4.70;99.90;;;;;;4954286;28;20433;-53
2021/12/19 10:53:54;;;;;;;12.03;8.07;;;4.70;99.90;;;;;;4890099;29;20965;-54
2021/12/19 10:56:26;;;;;;;11.47;8.53;;;4.90;99.90;;;;;;4893779;29;20583;-52
2021/12/19 10:59:04;;;;;;;13.13;8.20;;;4.80;99.90;;;;;;4928345;28;20438;-52
2021/12/19 11:01:37;;;;;;;11.30;8.00;;;4.90;99.90;;;;;;4955433;28;20433;-56
2021/12/19 11:04:09;;;;;;;12.33;8.10;;;5.00;99.90;;;;;;4957185;28;20488;-49
2021/12/19 11:06:40;;;;;;;15.20;9.10;;;4.90;99.90;;;;;;4960682;28;20540;-55
2021/12/19 11:09:12;;;;;;;16.17;8.57;;;4.80;99.90;;;;;;4959290;28;20868;-51
2021/12/19 11:12:06;;;;;;;14.17;8.37;;;4.70;99.90;;;;;;4960299;28;20493;-55
2021/12/19 11:14:40;;;;;;;11.90;8.50;;;4.70;99.90;;;;;;4958992;28;20450;-50
2021/12/19 11:17:15;;;;;;;11.90;8.30;;;4.70;99.90;;;;;;4962653;28;20530;-56
2021/12/19 11:19:41;;;;;;;12.90;8.70;;;4.80;99.90;;;;;;4960999;28;20441;-57
2021/12/19 11:22:08;;;;;;;12.63;8.10;;;4.70;99.90;;;;;;4960838;28;21023;-54
2021/12/19 11:24:33;;;;;;;15.37;10.20;;;4.70;99.90;;;;;;4962978;28;22194;-55
2021/12/19 11:27:02;;;;;;;26.40;9.47;;;4.70;99.90;;;;;;4958985;28;20434;-57
2021/12/19 11:29:28;;;;;;;15.97;9.47;;;4.80;99.90;;;;;;4959622;28;20600;-56
2021/12/19 11:31:58;;;;;;;15.50;9.93;;;4.70;99.90;;;;;;4957201;28;20533;-55
2021/12/19 11:34:23;;;;;;;17.70;9.43;;;4.70;99.90;;;;;;4958555;28;20521;-52
2021/12/19 11:37:18;;;;;;;13.47;9.47;;;4.70;99.90;;;;;;4960742;28;20465;-49
2021/12/19 11:39:50;;;;;;;15.67;9.93;;;4.80;99.90;;;;;;4955083;28;20201;-52
2021/12/19 11:42:31;;;;;;;14.30;8.90;;;4.80;99.90;;;;;;4956038;28;20497;-54
2021/12/19 11:47:36;;;;;;;16.03;9.60;;;5.00;99.90;;;;;;4957388;28;20813;-57
2021/12/19 11:50:34;;;;;;;14.83;8.73;;;4.90;99.90;;;;;;4959680;28;20993;-53
2021/12/19 11:53:08;;;;;;;14.17;9.10;;;5.00;99.90;;;;;;4962299;28;20496;-60
2021/12/19 11:55:34;;;;;;;14.83;9.70;;;5.00;99.90;;;;;;4957956;28;20465;-58
2021/12/19 11:58:08;;;;;;;15.07;9.30;;;4.90;99.90;;;;;;4957252;28;20474;-60
2021/12/19 12:00:47;;;;;;;16.03;8.87;;;5.00;99.90;;;;;;4958303;28;20245;-60
2021/12/19 12:03:12;;;;;;;16.10;9.13;;;4.90;99.90;;;;;;4961402;28;20444;-59
2021/12/19 12:05:46;;;;;;;14.43;8.77;;;5.00;99.90;;;;;;4957402;28;20990;-54
2021/12/19 12:08:25;;;;;;;13.53;8.17;;;5.00;99.90;;;;;;4957163;28;20195;-53
2021/12/19 12:10:58;;;;;;;19.40;8.67;;;5.00;99.90;;;;;;4960877;28;20483;-56
2021/12/19 12:13:32;;;;;;;16.90;9.60;;;4.80;99.90;;;;;;4964304;28;24659;-54
2021/12/19 12:16:30;;;;;;;14.40;9.73;;;4.70;99.90;;;;;;4957695;28;20471;-57
2021/12/19 12:18:58;;;;;;;13.83;9.03;;;4.80;99.90;;;;;;4955569;28;20442;-55
2021/12/19 12:23:55;;;;;;;15.60;9.63;;;4.80;99.90;;;;;;4956315;28;24585;-55
2021/12/19 12:26:40;;;;;;;12.80;8.63;;;4.80;99.90;;;;;;4955192;28;20477;-55
2021/12/19 12:29:07;;;;;;;17.60;8.80;;;4.80;99.90;;;;;;4955342;28;20439;-52
2021/12/19 12:31:33;;;;;;;14.37;8.50;;;4.70;99.90;;;;;;4961635;28;20450;-54
2021/12/19 12:33:59;;;;;;;11.20;8.13;;;4.70;99.90;;;;;;4957473;28;20744;-56
2021/12/19 12:36:25;;;;;;;12.90;9.00;;;4.80;99.90;;;;;;4957369;28;20450;-56
2021/12/19 12:38:53;;;;;;;13.00;8.30;;;4.80;99.90;;;;;;4961422;28;20480;-56
2021/12/19 12:41:29;;;;;;;11.10;7.90;;;4.80;99.90;;;;;;4951560;28;20437;-56
2021/12/19 12:44:05;;;;;;;15.50;8.40;;;4.90;99.90;;;;;;4958115;28;20429;-57
2021/12/19 12:46:31;;;;;;;11.60;7.20;;;4.80;99.90;;;;;;4962243;28;20438;-53
2021/12/19 12:49:00;;;;;;;11.67;8.23;;;4.70;99.90;;;;;;4959962;28;20501;-54
2021/12/19 12:51:46;;;;;;;14.83;8.70;;;4.80;99.90;;;;;;4959383;28;20631;-55
2021/12/19 12:54:15;;;;;;;15.57;8.73;;;4.80;99.90;;;;;;4959523;28;20449;-54
2021/12/19 12:56:47;;;;;;;14.70;8.70;;;4.80;99.90;;;;;;4957147;28;20454;-59
2021/12/19 12:59:15;;;;;;;14.80;9.20;;;4.80;99.90;;;;;;4940791;28;20443;-55
2021/12/19 13:01:50;;;;;;;14.47;8.73;;;4.80;99.90;;;;;;4960343;28;20783;-54
2021/12/19 13:04:18;;;;;;;14.73;9.10;;;4.80;99.90;;;;;;4958945;28;22059;-56
2021/12/19 13:06:51;;;;;;;14.20;9.13;;;4.90;99.90;;;;;;4957397;28;20569;-56
2021/12/19 13:09:26;;;;;;;13.13;8.03;;;4.80;99.90;;;;;;4959298;28;20485;-55
2021/12/19 13:12:08;;;;;;;12.07;7.77;;;4.70;99.90;;;;;;4959171;28;20484;-57
2021/12/19 13:14:49;;;;;;;16.10;9.10;;;4.70;99.90;;;;;;4959288;28;20497;-55
2021/12/19 13:17:22;;;;;;;16.83;9.73;;;4.70;99.90;;;;;;4958438;28;20470;-52
2021/12/19 13:20:08;;;;;;;17.33;9.10;;;4.70;99.90;;;;;;4958426;28;20434;-56
2021/12/19 13:22:35;;;;;;;12.27;7.63;;;4.70;99.90;;;;;;4951800;28;20445;-56
2021/12/19 13:25:29;;;;;;;15.00;8.93;;;4.70;99.90;;;;;;4955247;28;20458;-56
2021/12/19 13:27:57;;;;;;;15.00;8.67;;;4.80;99.90;;;;;;4955688;28;20492;-55
2021/12/19 13:30:24;;;;;;;12.53;9.27;;;4.80;99.90;;;;;;4960283;28;20466;-57
2021/12/19 13:33:03;;;;;;;13.30;8.60;;;4.70;99.90;;;;;;4957901;28;20552;-53
2021/12/19 13:35:38;;;;;;;18.67;10.33;;;4.60;99.90;;;;;;4958703;28;20471;-51
2021/12/19 13:38:10;;;;;;;17.70;8.33;;;4.50;99.90;;;;;;4959069;28;20489;-53
2021/12/19 13:40:37;;;;;;;17.93;10.30;;;4.50;99.90;;;;;;4959961;28;20464;-58
2021/12/19 13:43:04;;;;;;;12.03;8.20;;;4.50;99.90;;;;;;4960520;28;20560;-54
2021/12/19 13:45:36;;;;;;;13.63;9.00;;;4.60;99.90;;;;;;4953779;28;20446;-52
2021/12/19 13:48:05;;;;;;;13.43;8.10;;;4.50;99.90;;;;;;4960616;28;20764;-52
2021/12/19 13:50:37;;;;;;;18.83;10.07;;;4.60;99.90;;;;;;4960495;28;20441;-55
2021/12/19 13:53:02;;;;;;;16.80;9.80;;;4.60;99.90;;;;;;4957908;28;20437;-50
2021/12/19 13:55:40;;;;;;;15.43;8.70;;;4.60;99.90;;;;;;4957322;28;20465;-56
2021/12/19 13:58:08;;;;;;;16.97;10.33;;;4.70;99.90;;;;;;4957077;28;20198;-51
2021/12/19 14:00:37;;;;;;;12.80;8.40;;;4.80;99.90;;;;;;4943228;28;20478;-50